sensor_id;sensor_type;location;lat;lon;timestamp;temperature;humidity
16479;DHT22;8350;52.316;10.530;2024-01-30T00:00:30;0.60;99.90
16479;DHT22;8350;52.316;10.530;2024-01-30T00:02:57;0.60;99.90
16479;DHT22;8350;52.316;10.530;2024-01-30T00:05:24;0.60;99.90
16479;DHT22;8350;52.316;10.530;2024-01-30T00:07:52;0.60;99.90
16479;DHT22;8350;52.316;10.530;2024-01-30T00:10:19;0.50;99.90
16479;DHT22;8350;52.316;10.530;2024-01-30T00:13:01;0.50;99.90
16479;DHT22;8350;52.316;10.530;2024-01-30T00:15:28;0.50;99.90
16479;DHT22;8350;52.316;10.530;2024-01-30T00:17:55;0.50;99.90
16479;DHT22;8350;52.316;10.530;2024-01-30T00:20:22;0.50;99.90
16479;DHT22;8350;52.316;10.530;2024-01-30T00:22:49;0.50;99.90
16479;DHT22;8350;52.316;10.530;2024-01-30T00:25:19;0.40;99.90
16479;DHT22;8350;52.316;10.530;2024-01-30T00:27:46;0.50;99.90
16479;DHT22;8350;52.316;10.530;2024-01-30T00:30:14;0.50;99.90
16479;DHT22;8350;52.316;10.530;2024-01-30T00:32:43;0.50;99.90
16479;DHT22;8350;52.316;10.530;2024-01-30T00:35:10;0.50;99.90
16479;DHT22;8350;52.316;10.530;2024-01-30T00:37:37;0.50;99.90
16479;DHT22;8350;52.316;10.530;2024-01-30T00:40:05;0.50;99.90
16479;DHT22;8350;52.316;10.530;2024-01-30T00:42:33;0.50;99.90
16479;DHT22;8350;52.316;10.530;2024-01-30T00:45:00;0.50;99.90
16479;DHT22;8350;52.316;10.530;2024-01-30T00:47:27;0.60;99.90
16479;DHT22;8350;52.316;10.530;2024-01-30T00:49:54;0.60;99.90
16479;DHT22;8350;52.316;10.530;2024-01-30T00:52:21;0.60;99.90
16479;DHT22;8350;52.316;10.530;2024-01-30T00:54:55;0.60;99.90
16479;DHT22;8350;52.316;10.530;2024-01-30T00:57:22;0.70;99.90
16479;DHT22;8350;52.316;10.530;2024-01-30T00:59:52;0.60;99.90
16479;DHT22;8350;52.316;10.530;2024-01-30T01:02:19;0.60;99.90
16479;DHT22;8350;52.316;10.530;2024-01-30T01:04:46;0.60;99.90
16479;DHT22;8350;52.316;10.530;2024-01-30T01:07:13;0.60;99.90
16479;DHT22;8350;52.316;10.530;2024-01-30T01:09:40;0.60;99.90
16479;DHT22;8350;52.316;10.530;2024-01-30T01:12:13;0.50;99.90
16479;DHT22;8350;52.316;10.530;2024-01-30T01:14:41;0.40;99.90
16479;DHT22;8350;52.316;10.530;2024-01-30T01:17:10;0.40;99.90
16479;DHT22;8350;52.316;10.530;2024-01-30T01:19:37;0.40;99.90
16479;DHT22;8350;52.316;10.530;2024-01-30T01:22:04;0.40;99.90
16479;DHT22;8350;52.316;10.530;2024-01-30T01:24:32;0.40;99.90
16479;DHT22;8350;52.316;10.530;2024-01-30T01:27:01;0.40;99.90
16479;DHT22;8350;52.316;10.530;2024-01-30T01:29:28;0.40;99.90
16479;DHT22;8350;52.316;10.530;2024-01-30T01:31:55;0.40;99.90
16479;DHT22;8350;52.316;10.530;2024-01-30T01:34:24;0.40;99.90
16479;DHT22;8350;52.316;10.530;2024-01-30T01:36:51;0.40;99.90
16479;DHT22;8350;52.316;10.530;2024-01-30T01:39:21;0.40;99.90
16479;DHT22;8350;52.316;10.530;2024-01-30T01:41:48;0.40;99.90
16479;DHT22;8350;52.316;10.530;2024-01-30T01:44:17;0.40;99.90
16479;DHT22;8350;52.316;10.530;2024-01-30T01:46:44;0.40;99.90
16479;DHT22;8350;52.316;10.530;2024-01-30T01:49:11;0.40;99.90
16479;DHT22;8350;52.316;10.530;2024-01-30T01:51:42;0.40;99.90
16479;DHT22;8350;52.316;10.530;2024-01-30T01:54:10;0.40;99.90
16479;DHT22;8350;52.316;10.530;2024-01-30T01:56:38;0.30;99.90
16479;DHT22;8350;52.316;10.530;2024-01-30T01:59:06;0.30;99.90
16479;DHT22;8350;52.316;10.530;2024-01-30T02:01:34;0.20;99.90
16479;DHT22;8350;52.316;10.530;2024-01-30T02:04:03;0.10;99.90
16479;DHT22;8350;52.316;10.530;2024-01-30T02:06:30;0.10;99.90
16479;DHT22;8350;52.316;10.530;2024-01-30T02:08:59;0.10;99.90
16479;DHT22;8350;52.316;10.530;2024-01-30T02:11:26;0.10;99.90
16479;DHT22;8350;52.316;10.530;2024-01-30T02:13:54;0.20;99.90
16479;DHT22;8350;52.316;10.530;2024-01-30T02:16:21;0.20;99.90
16479;DHT22;8350;52.316;10.530;2024-01-30T02:18:48;0.20;99.90
16479;DHT22;8350;52.316;10.530;2024-01-30T02:21:16;0.20;99.90
16479;DHT22;8350;52.316;10.530;2024-01-30T02:23:47;0.20;99.90
16479;DHT22;8350;52.316;10.530;2024-01-30T02:26:14;0.20;99.90
16479;DHT22;8350;52.316;10.530;2024-01-30T02:28:42;0.20;99.90
16479;DHT22;8350;52.316;10.530;2024-01-30T02:31:09;0.10;99.90
16479;DHT22;8350;52.316;10.530;2024-01-30T02:33:36;0.10;99.90
16479;DHT22;8350;52.316;10.530;2024-01-30T02:36:04;0.20;99.90
16479;DHT22;8350;52.316;10.530;2024-01-30T02:38:33;0.20;99.90
16479;DHT22;8350;52.316;10.530;2024-01-30T02:41:03;0.20;99.90
16479;DHT22;8350;52.316;10.530;2024-01-30T02:43:33;0.30;99.90
16479;DHT22;8350;52.316;10.530;2024-01-30T02:46:00;0.30;99.90
16479;DHT22;8350;52.316;10.530;2024-01-30T02:48:28;0.30;99.90
16479;DHT22;8350;52.316;10.530;2024-01-30T02:50:55;0.30;99.90
16479;DHT22;8350;52.316;10.530;2024-01-30T02:53:23;0.40;99.90
16479;DHT22;8350;52.316;10.530;2024-01-30T02:55:51;0.40;99.90
16479;DHT22;8350;52.316;10.530;2024-01-30T02:58:18;0.40;99.90
16479;DHT22;8350;52.316;10.530;2024-01-30T03:00:45;0.40;99.90
16479;DHT22;8350;52.316;10.530;2024-01-30T03:03:12;0.40;99.90
16479;DHT22;8350;52.316;10.530;2024-01-30T03:05:39;0.40;99.90
16479;DHT22;8350;52.316;10.530;2024-01-30T03:08:09;0.30;99.90
16479;DHT22;8350;52.316;10.530;2024-01-30T03:10:39;0.30;99.90
16479;DHT22;8350;52.316;10.530;2024-01-30T03:13:14;0.20;99.90
16479;DHT22;8350;52.316;10.530;2024-01-30T03:15:44;0.20;99.90
16479;DHT22;8350;52.316;10.530;2024-01-30T03:18:11;0.10;99.90
16479;DHT22;8350;52.316;10.530;2024-01-30T03:20:38;0.10;99.90
16479;DHT22;8350;52.316;10.530;2024-01-30T03:23:04;0.10;99.90
16479;DHT22;8350;52.316;10.530;2024-01-30T03:25:31;0.10;99.90
16479;DHT22;8350;52.316;10.530;2024-01-30T03:27:58;0.10;99.90
16479;DHT22;8350;52.316;10.530;2024-01-30T03:30:27;0.20;99.90
16479;DHT22;8350;52.316;10.530;2024-01-30T03:32:53;0.20;99.90
16479;DHT22;8350;52.316;10.530;2024-01-30T03:35:20;0.20;99.90
16479;DHT22;8350;52.316;10.530;2024-01-30T03:37:47;0.20;99.90
16479;DHT22;8350;52.316;10.530;2024-01-30T03:40:14;0.20;99.90
16479;DHT22;8350;52.316;10.530;2024-01-30T03:42:44;0.30;99.90
16479;DHT22;8350;52.316;10.530;2024-01-30T03:45:11;0.30;99.90
16479;DHT22;8350;52.316;10.530;2024-01-30T03:47:39;0.30;99.90
16479;DHT22;8350;52.316;10.530;2024-01-30T03:50:06;0.30;99.90
16479;DHT22;8350;52.316;10.530;2024-01-30T03:52:33;0.30;99.90
16479;DHT22;8350;52.316;10.530;2024-01-30T03:55:01;0.40;99.90
16479;DHT22;8350;52.316;10.530;2024-01-30T03:57:28;0.40;99.90
16479;DHT22;8350;52.316;10.530;2024-01-30T03:59:54;0.40;99.90
16479;DHT22;8350;52.316;10.530;2024-01-30T04:02:24;0.30;99.90
16479;DHT22;8350;52.316;10.530;2024-01-30T04:04:53;0.30;99.90
16479;DHT22;8350;52.316;10.530;2024-01-30T04:07:20;0.30;99.90
16479;DHT22;8350;52.316;10.530;2024-01-30T04:09:47;0.30;99.90
16479;DHT22;8350;52.316;10.530;2024-01-30T04:12:17;0.30;99.90
16479;DHT22;8350;52.316;10.530;2024-01-30T04:14:46;0.40;99.90
16479;DHT22;8350;52.316;10.530;2024-01-30T04:17:13;0.50;99.90
16479;DHT22;8350;52.316;10.530;2024-01-30T04:19:42;0.60;99.90
16479;DHT22;8350;52.316;10.530;2024-01-30T04:22:12;0.60;99.90
16479;DHT22;8350;52.316;10.530;2024-01-30T04:24:39;0.70;99.90
16479;DHT22;8350;52.316;10.530;2024-01-30T04:27:06;0.80;99.90
16479;DHT22;8350;52.316;10.530;2024-01-30T04:29:33;0.80;99.90
16479;DHT22;8350;52.316;10.530;2024-01-30T04:32:04;0.80;99.90
16479;DHT22;8350;52.316;10.530;2024-01-30T04:34:30;0.80;99.90
16479;DHT22;8350;52.316;10.530;2024-01-30T04:36:57;0.80;99.90
16479;DHT22;8350;52.316;10.530;2024-01-30T04:41:55;0.90;99.90
16479;DHT22;8350;52.316;10.530;2024-01-30T04:44:22;0.90;99.90
16479;DHT22;8350;52.316;10.530;2024-01-30T04:46:49;0.90;99.90
16479;DHT22;8350;52.316;10.530;2024-01-30T04:49:16;1.00;99.90
16479;DHT22;8350;52.316;10.530;2024-01-30T04:51:43;1.10;99.90
16479;DHT22;8350;52.316;10.530;2024-01-30T04:54:12;1.10;99.90
16479;DHT22;8350;52.316;10.530;2024-01-30T04:56:39;1.10;99.90
16479;DHT22;8350;52.316;10.530;2024-01-30T04:59:10;1.10;99.90
16479;DHT22;8350;52.316;10.530;2024-01-30T05:01:37;1.10;99.90
16479;DHT22;8350;52.316;10.530;2024-01-30T05:04:07;1.10;99.90
16479;DHT22;8350;52.316;10.530;2024-01-30T05:06:34;1.10;99.90
16479;DHT22;8350;52.316;10.530;2024-01-30T05:09:01;1.10;99.90
16479;DHT22;8350;52.316;10.530;2024-01-30T05:11:29;1.00;99.90
16479;DHT22;8350;52.316;10.530;2024-01-30T05:13:59;1.00;99.90
16479;DHT22;8350;52.316;10.530;2024-01-30T05:16:27;1.00;99.90
16479;DHT22;8350;52.316;10.530;2024-01-30T05:18:54;0.90;99.90
16479;DHT22;8350;52.316;10.530;2024-01-30T05:21:21;0.90;99.90
16479;DHT22;8350;52.316;10.530;2024-01-30T05:23:48;0.90;99.90
16479;DHT22;8350;52.316;10.530;2024-01-30T05:26:15;1.00;99.90
16479;DHT22;8350;52.316;10.530;2024-01-30T05:28:42;0.90;99.90
16479;DHT22;8350;52.316;10.530;2024-01-30T05:31:10;0.90;99.90
16479;DHT22;8350;52.316;10.530;2024-01-30T05:33:38;0.90;99.90
16479;DHT22;8350;52.316;10.530;2024-01-30T05:36:05;0.90;99.90
16479;DHT22;8350;52.316;10.530;2024-01-30T05:38:34;0.90;99.90
16479;DHT22;8350;52.316;10.530;2024-01-30T05:41:03;0.90;99.90
16479;DHT22;8350;52.316;10.530;2024-01-30T05:43:31;0.90;99.90
16479;DHT22;8350;52.316;10.530;2024-01-30T05:45:58;0.90;99.90
16479;DHT22;8350;52.316;10.530;2024-01-30T05:48:26;0.90;99.90
16479;DHT22;8350;52.316;10.530;2024-01-30T05:50:54;0.90;99.90
16479;DHT22;8350;52.316;10.530;2024-01-30T05:53:22;0.90;99.90
16479;DHT22;8350;52.316;10.530;2024-01-30T05:55:49;0.90;99.90
16479;DHT22;8350;52.316;10.530;2024-01-30T05:58:16;0.90;99.90
16479;DHT22;8350;52.316;10.530;2024-01-30T06:00:43;0.90;99.90
16479;DHT22;8350;52.316;10.530;2024-01-30T06:03:09;0.90;99.90
16479;DHT22;8350;52.316;10.530;2024-01-30T06:05:36;0.90;99.90
16479;DHT22;8350;52.316;10.530;2024-01-30T06:08:06;0.90;99.90
16479;DHT22;8350;52.316;10.530;2024-01-30T06:10:33;0.80;99.90
16479;DHT22;8350;52.316;10.530;2024-01-30T06:12:59;0.80;99.90
16479;DHT22;8350;52.316;10.530;2024-01-30T06:15:27;0.80;99.90
16479;DHT22;8350;52.316;10.530;2024-01-30T06:17:55;0.70;99.90
16479;DHT22;8350;52.316;10.530;2024-01-30T06:20:22;0.70;99.90
16479;DHT22;8350;52.316;10.530;2024-01-30T06:22:49;0.70;99.90
16479;DHT22;8350;52.316;10.530;2024-01-30T06:25:17;0.70;99.90
16479;DHT22;8350;52.316;10.530;2024-01-30T06:27:47;0.70;99.90
16479;DHT22;8350;52.316;10.530;2024-01-30T06:30:14;0.70;99.90
16479;DHT22;8350;52.316;10.530;2024-01-30T06:32:43;0.70;99.90
16479;DHT22;8350;52.316;10.530;2024-01-30T06:35:10;0.70;99.90
16479;DHT22;8350;52.316;10.530;2024-01-30T06:37:38;0.70;99.90
16479;DHT22;8350;52.316;10.530;2024-01-30T06:40:06;0.70;99.90
16479;DHT22;8350;52.316;10.530;2024-01-30T06:42:37;0.70;99.90
16479;DHT22;8350;52.316;10.530;2024-01-30T06:45:05;0.70;99.90
16479;DHT22;8350;52.316;10.530;2024-01-30T06:47:34;0.70;99.90
16479;DHT22;8350;52.316;10.530;2024-01-30T06:50:02;0.80;99.90
16479;DHT22;8350;52.316;10.530;2024-01-30T06:52:29;0.80;99.90
16479;DHT22;8350;52.316;10.530;2024-01-30T06:54:56;0.80;99.90
16479;DHT22;8350;52.316;10.530;2024-01-30T06:57:22;0.90;99.90
16479;DHT22;8350;52.316;10.530;2024-01-30T06:59:51;0.90;99.90
16479;DHT22;8350;52.316;10.530;2024-01-30T07:02:18;1.00;99.90
16479;DHT22;8350;52.316;10.530;2024-01-30T07:04:45;1.20;99.90
16479;DHT22;8350;52.316;10.530;2024-01-30T07:07:12;1.30;99.90
16479;DHT22;8350;52.316;10.530;2024-01-30T07:09:40;1.30;99.90
16479;DHT22;8350;52.316;10.530;2024-01-30T07:12:07;1.40;99.90
16479;DHT22;8350;52.316;10.530;2024-01-30T07:14:36;1.50;99.90
16479;DHT22;8350;52.316;10.530;2024-01-30T07:17:05;1.50;99.90
16479;DHT22;8350;52.316;10.530;2024-01-30T07:19:33;1.40;99.90
16479;DHT22;8350;52.316;10.530;2024-01-30T07:22:00;1.40;99.90
16479;DHT22;8350;52.316;10.530;2024-01-30T07:24:27;1.30;99.90
16479;DHT22;8350;52.316;10.530;2024-01-30T07:26:54;1.30;99.90
16479;DHT22;8350;52.316;10.530;2024-01-30T07:29:21;1.30;99.90
16479;DHT22;8350;52.316;10.530;2024-01-30T07:31:48;1.30;99.90
16479;DHT22;8350;52.316;10.530;2024-01-30T07:34:17;1.30;99.90
16479;DHT22;8350;52.316;10.530;2024-01-30T07:36:47;1.40;99.90
16479;DHT22;8350;52.316;10.530;2024-01-30T07:39:14;1.40;99.90
16479;DHT22;8350;52.316;10.530;2024-01-30T07:41:41;1.50;99.90
16479;DHT22;8350;52.316;10.530;2024-01-30T07:44:08;1.50;99.90
16479;DHT22;8350;52.316;10.530;2024-01-30T07:46:35;1.50;99.90
16479;DHT22;8350;52.316;10.530;2024-01-30T07:49:02;1.50;99.90
16479;DHT22;8350;52.316;10.530;2024-01-30T07:51:32;1.60;99.90
16479;DHT22;8350;52.316;10.530;2024-01-30T07:53:59;1.60;99.90
16479;DHT22;8350;52.316;10.530;2024-01-30T07:56:42;1.60;99.90
16479;DHT22;8350;52.316;10.530;2024-01-30T07:59:22;1.60;99.90
16479;DHT22;8350;52.316;10.530;2024-01-30T08:01:50;1.60;99.90
16479;DHT22;8350;52.316;10.530;2024-01-30T08:04:17;1.60;99.90
16479;DHT22;8350;52.316;10.530;2024-01-30T08:06:45;1.70;99.90
16479;DHT22;8350;52.316;10.530;2024-01-30T08:09:12;1.80;99.90
16479;DHT22;8350;52.316;10.530;2024-01-30T08:11:40;1.90;99.90
16479;DHT22;8350;52.316;10.530;2024-01-30T08:14:09;2.00;99.90
16479;DHT22;8350;52.316;10.530;2024-01-30T08:16:36;2.10;99.90
16479;DHT22;8350;52.316;10.530;2024-01-30T08:19:03;2.20;99.90
16479;DHT22;8350;52.316;10.530;2024-01-30T08:21:30;2.30;99.90
16479;DHT22;8350;52.316;10.530;2024-01-30T08:24:04;2.50;99.90
16479;DHT22;8350;52.316;10.530;2024-01-30T08:26:31;2.60;99.90
16479;DHT22;8350;52.316;10.530;2024-01-30T08:28:58;2.70;99.90
16479;DHT22;8350;52.316;10.530;2024-01-30T08:31:25;2.80;99.90
16479;DHT22;8350;52.316;10.530;2024-01-30T08:33:52;2.80;99.90
16479;DHT22;8350;52.316;10.530;2024-01-30T08:36:19;2.90;99.90
16479;DHT22;8350;52.316;10.530;2024-01-30T08:38:49;2.90;99.90
16479;DHT22;8350;52.316;10.530;2024-01-30T08:41:17;3.00;99.90
16479;DHT22;8350;52.316;10.530;2024-01-30T08:43:44;3.00;99.90
16479;DHT22;8350;52.316;10.530;2024-01-30T08:46:12;3.10;99.90
16479;DHT22;8350;52.316;10.530;2024-01-30T08:48:39;3.20;99.90
16479;DHT22;8350;52.316;10.530;2024-01-30T08:51:06;3.20;99.90
16479;DHT22;8350;52.316;10.530;2024-01-30T08:53:34;3.30;99.90
16479;DHT22;8350;52.316;10.530;2024-01-30T08:56:05;3.40;99.90
16479;DHT22;8350;52.316;10.530;2024-01-30T08:59:09;3.40;99.90
16479;DHT22;8350;52.316;10.530;2024-01-30T09:01:50;3.60;99.90
16479;DHT22;8350;52.316;10.530;2024-01-30T09:04:20;3.70;99.90
16479;DHT22;8350;52.316;10.530;2024-01-30T09:06:48;3.90;99.90
16479;DHT22;8350;52.316;10.530;2024-01-30T09:09:15;4.00;99.90
16479;DHT22;8350;52.316;10.530;2024-01-30T09:11:43;4.10;99.90
16479;DHT22;8350;52.316;10.530;2024-01-30T09:14:11;4.20;99.90
16479;DHT22;8350;52.316;10.530;2024-01-30T09:16:38;4.40;99.90
16479;DHT22;8350;52.316;10.530;2024-01-30T09:19:05;4.50;99.90
16479;DHT22;8350;52.316;10.530;2024-01-30T09:21:32;4.60;99.90
16479;DHT22;8350;52.316;10.530;2024-01-30T09:24:02;4.80;99.90
16479;DHT22;8350;52.316;10.530;2024-01-30T09:26:30;4.90;99.90
16479;DHT22;8350;52.316;10.530;2024-01-30T09:28:57;5.00;99.90
16479;DHT22;8350;52.316;10.530;2024-01-30T09:31:26;5.20;99.90
16479;DHT22;8350;52.316;10.530;2024-01-30T09:33:52;5.30;99.90
16479;DHT22;8350;52.316;10.530;2024-01-30T09:36:20;5.40;99.90
16479;DHT22;8350;52.316;10.530;2024-01-30T09:38:47;5.50;99.90
16479;DHT22;8350;52.316;10.530;2024-01-30T09:41:15;5.60;99.90
16479;DHT22;8350;52.316;10.530;2024-01-30T09:43:47;5.70;99.90
16479;DHT22;8350;52.316;10.530;2024-01-30T09:46:17;5.80;99.90
16479;DHT22;8350;52.316;10.530;2024-01-30T09:48:49;5.90;99.90
16479;DHT22;8350;52.316;10.530;2024-01-30T09:51:17;6.00;99.90
16479;DHT22;8350;52.316;10.530;2024-01-30T09:53:44;6.10;99.90
16479;DHT22;8350;52.316;10.530;2024-01-30T09:56:12;6.20;99.90
16479;DHT22;8350;52.316;10.530;2024-01-30T09:58:39;6.30;99.90
16479;DHT22;8350;52.316;10.530;2024-01-30T10:01:07;6.40;99.90
16479;DHT22;8350;52.316;10.530;2024-01-30T10:03:34;6.60;99.90
16479;DHT22;8350;52.316;10.530;2024-01-30T10:06:03;6.70;99.90
16479;DHT22;8350;52.316;10.530;2024-01-30T10:08:30;6.90;99.90
16479;DHT22;8350;52.316;10.530;2024-01-30T10:11:12;7.10;99.90
16479;DHT22;8350;52.316;10.530;2024-01-30T10:13:39;7.30;99.90
16479;DHT22;8350;52.316;10.530;2024-01-30T10:16:08;7.50;99.90
16479;DHT22;8350;52.316;10.530;2024-01-30T10:18:38;7.50;99.90
16479;DHT22;8350;52.316;10.530;2024-01-30T10:21:06;7.60;99.90
16479;DHT22;8350;52.316;10.530;2024-01-30T10:23:34;7.70;99.90
16479;DHT22;8350;52.316;10.530;2024-01-30T10:26:04;7.80;99.90
16479;DHT22;8350;52.316;10.530;2024-01-30T10:28:31;7.90;99.90
16479;DHT22;8350;52.316;10.530;2024-01-30T10:30:58;7.90;99.90
16479;DHT22;8350;52.316;10.530;2024-01-30T10:33:26;8.00;99.90
16479;DHT22;8350;52.316;10.530;2024-01-30T10:35:55;8.10;99.90
16479;DHT22;8350;52.316;10.530;2024-01-30T10:38:29;8.30;99.90
16479;DHT22;8350;52.316;10.530;2024-01-30T10:40:57;8.40;99.90
16479;DHT22;8350;52.316;10.530;2024-01-30T10:43:28;8.50;99.90
16479;DHT22;8350;52.316;10.530;2024-01-30T10:45:57;8.60;99.90
16479;DHT22;8350;52.316;10.530;2024-01-30T10:48:30;8.80;99.90
16479;DHT22;8350;52.316;10.530;2024-01-30T10:51:00;8.90;99.90
16479;DHT22;8350;52.316;10.530;2024-01-30T10:53:31;9.00;99.90
16479;DHT22;8350;52.316;10.530;2024-01-30T10:55:59;9.10;99.90
16479;DHT22;8350;52.316;10.530;2024-01-30T10:58:27;9.10;99.90
16479;DHT22;8350;52.316;10.530;2024-01-30T11:00:56;9.20;99.90
16479;DHT22;8350;52.316;10.530;2024-01-30T11:03:22;9.30;99.90
16479;DHT22;8350;52.316;10.530;2024-01-30T11:05:50;9.40;99.90
16479;DHT22;8350;52.316;10.530;2024-01-30T11:08:23;9.40;99.90
16479;DHT22;8350;52.316;10.530;2024-01-30T11:10:57;9.50;99.90
16479;DHT22;8350;52.316;10.530;2024-01-30T11:13:29;9.50;99.90
16479;DHT22;8350;52.316;10.530;2024-01-30T11:16:02;9.60;99.90
16479;DHT22;8350;52.316;10.530;2024-01-30T11:18:30;9.70;99.90
16479;DHT22;8350;52.316;10.530;2024-01-30T11:20:58;9.70;99.90
16479;DHT22;8350;52.316;10.530;2024-01-30T11:23:27;9.80;99.90
16479;DHT22;8350;52.316;10.530;2024-01-30T11:25:56;9.80;99.90
16479;DHT22;8350;52.316;10.530;2024-01-30T11:28:24;9.80;99.90
16479;DHT22;8350;52.316;10.530;2024-01-30T11:30:51;9.80;99.90
16479;DHT22;8350;52.316;10.530;2024-01-30T11:33:28;9.90;99.90
16479;DHT22;8350;52.316;10.530;2024-01-30T11:35:57;9.90;99.90
16479;DHT22;8350;52.316;10.530;2024-01-30T11:38:25;10.00;99.90
16479;DHT22;8350;52.316;10.530;2024-01-30T11:40:53;10.00;99.90
16479;DHT22;8350;52.316;10.530;2024-01-30T11:43:22;10.00;99.90
16479;DHT22;8350;52.316;10.530;2024-01-30T11:45:49;10.00;99.90
16479;DHT22;8350;52.316;10.530;2024-01-30T11:48:16;10.10;99.90
16479;DHT22;8350;52.316;10.530;2024-01-30T11:50:47;10.10;99.90
16479;DHT22;8350;52.316;10.530;2024-01-30T11:53:16;10.10;99.90
16479;DHT22;8350;52.316;10.530;2024-01-30T11:55:49;10.10;99.90
16479;DHT22;8350;52.316;10.530;2024-01-30T11:58:16;10.10;99.90
16479;DHT22;8350;52.316;10.530;2024-01-30T12:00:53;10.10;99.90
16479;DHT22;8350;52.316;10.530;2024-01-30T12:03:19;10.10;99.90
16479;DHT22;8350;52.316;10.530;2024-01-30T12:05:47;10.10;99.90
16479;DHT22;8350;52.316;10.530;2024-01-30T12:08:21;10.20;99.90
16479;DHT22;8350;52.316;10.530;2024-01-30T12:13:37;10.20;99.90
16479;DHT22;8350;52.316;10.530;2024-01-30T12:16:08;10.20;99.90
16479;DHT22;8350;52.316;10.530;2024-01-30T12:18:36;10.20;99.90
16479;DHT22;8350;52.316;10.530;2024-01-30T12:21:04;10.20;99.90
16479;DHT22;8350;52.316;10.530;2024-01-30T12:23:35;10.20;99.90
16479;DHT22;8350;52.316;10.530;2024-01-30T12:26:03;10.20;99.90
16479;DHT22;8350;52.316;10.530;2024-01-30T12:28:32;10.20;99.90
16479;DHT22;8350;52.316;10.530;2024-01-30T12:31:03;10.30;99.90
16479;DHT22;8350;52.316;10.530;2024-01-30T12:33:31;10.30;99.90
16479;DHT22;8350;52.316;10.530;2024-01-30T12:36:01;10.30;99.90
16479;DHT22;8350;52.316;10.530;2024-01-30T12:38:30;10.40;99.90
16479;DHT22;8350;52.316;10.530;2024-01-30T12:40:57;10.40;99.90
16479;DHT22;8350;52.316;10.530;2024-01-30T12:43:25;10.40;99.90
16479;DHT22;8350;52.316;10.530;2024-01-30T12:45:55;10.50;99.90
16479;DHT22;8350;52.316;10.530;2024-01-30T12:48:22;10.60;99.90
16479;DHT22;8350;52.316;10.530;2024-01-30T12:50:52;10.50;99.90
16479;DHT22;8350;52.316;10.530;2024-01-30T12:53:19;10.50;99.90
16479;DHT22;8350;52.316;10.530;2024-01-30T12:55:48;10.50;99.90
16479;DHT22;8350;52.316;10.530;2024-01-30T12:58:17;10.60;99.90
16479;DHT22;8350;52.316;10.530;2024-01-30T13:00:44;10.60;99.90
16479;DHT22;8350;52.316;10.530;2024-01-30T13:03:14;10.60;99.90
16479;DHT22;8350;52.316;10.530;2024-01-30T13:05:44;10.70;99.90
16479;DHT22;8350;52.316;10.530;2024-01-30T13:08:12;10.80;99.90
16479;DHT22;8350;52.316;10.530;2024-01-30T13:10:39;10.80;99.90
16479;DHT22;8350;52.316;10.530;2024-01-30T13:13:06;10.90;99.90
16479;DHT22;8350;52.316;10.530;2024-01-30T13:15:35;11.00;99.90
16479;DHT22;8350;52.316;10.530;2024-01-30T13:18:02;11.00;99.90
16479;DHT22;8350;52.316;10.530;2024-01-30T13:20:29;11.00;99.90
16479;DHT22;8350;52.316;10.530;2024-01-30T13:22:56;11.00;99.90
16479;DHT22;8350;52.316;10.530;2024-01-30T13:25:28;11.00;99.90
16479;DHT22;8350;52.316;10.530;2024-01-30T13:27:55;11.00;99.90
16479;DHT22;8350;52.316;10.530;2024-01-30T13:30:22;11.00;99.90
16479;DHT22;8350;52.316;10.530;2024-01-30T13:32:49;11.00;99.90
16479;DHT22;8350;52.316;10.530;2024-01-30T13:35:29;11.00;99.90
16479;DHT22;8350;52.316;10.530;2024-01-30T13:37:57;11.00;99.90
16479;DHT22;8350;52.316;10.530;2024-01-30T13:40:24;11.00;99.90
16479;DHT22;8350;52.316;10.530;2024-01-30T13:42:54;11.00;99.90
16479;DHT22;8350;52.316;10.530;2024-01-30T13:45:20;11.00;99.90
16479;DHT22;8350;52.316;10.530;2024-01-30T13:47:47;10.90;99.90
16479;DHT22;8350;52.316;10.530;2024-01-30T13:50:14;10.90;99.90
16479;DHT22;8350;52.316;10.530;2024-01-30T13:52:42;10.80;99.90
16479;DHT22;8350;52.316;10.530;2024-01-30T13:55:09;10.70;99.90
16479;DHT22;8350;52.316;10.530;2024-01-30T13:57:39;10.60;99.90
16479;DHT22;8350;52.316;10.530;2024-01-30T14:00:08;10.60;99.90
16479;DHT22;8350;52.316;10.530;2024-01-30T14:02:36;10.50;99.90
16479;DHT22;8350;52.316;10.530;2024-01-30T14:05:06;10.50;99.90
16479;DHT22;8350;52.316;10.530;2024-01-30T14:07:33;10.40;99.90
16479;DHT22;8350;52.316;10.530;2024-01-30T14:10:00;10.40;99.90
16479;DHT22;8350;52.316;10.530;2024-01-30T14:12:27;10.40;99.90
16479;DHT22;8350;52.316;10.530;2024-01-30T14:14:55;10.40;99.90
16479;DHT22;8350;52.316;10.530;2024-01-30T14:17:24;10.40;99.90
16479;DHT22;8350;52.316;10.530;2024-01-30T14:19:51;10.30;99.90
16479;DHT22;8350;52.316;10.530;2024-01-30T14:22:17;10.30;99.90
16479;DHT22;8350;52.316;10.530;2024-01-30T14:24:44;10.30;99.90
16479;DHT22;8350;52.316;10.530;2024-01-30T14:27:13;10.30;99.90
16479;DHT22;8350;52.316;10.530;2024-01-30T14:29:39;10.30;99.90
16479;DHT22;8350;52.316;10.530;2024-01-30T14:32:09;10.30;99.90
16479;DHT22;8350;52.316;10.530;2024-01-30T14:34:37;10.20;99.90
16479;DHT22;8350;52.316;10.530;2024-01-30T14:37:04;10.20;99.90
16479;DHT22;8350;52.316;10.530;2024-01-30T14:39:31;10.10;99.90
16479;DHT22;8350;52.316;10.530;2024-01-30T14:41:59;10.20;99.90
16479;DHT22;8350;52.316;10.530;2024-01-30T14:44:26;10.20;99.90
16479;DHT22;8350;52.316;10.530;2024-01-30T14:46:53;10.10;99.90
16479;DHT22;8350;52.316;10.530;2024-01-30T14:49:20;10.10;99.90
16479;DHT22;8350;52.316;10.530;2024-01-30T14:51:51;10.10;99.90
16479;DHT22;8350;52.316;10.530;2024-01-30T14:54:18;10.10;99.90
16479;DHT22;8350;52.316;10.530;2024-01-30T14:56:45;10.10;99.90
16479;DHT22;8350;52.316;10.530;2024-01-30T14:59:12;10.00;99.90
16479;DHT22;8350;52.316;10.530;2024-01-30T15:01:39;10.00;99.90
16479;DHT22;8350;52.316;10.530;2024-01-30T15:04:05;10.00;99.90
16479;DHT22;8350;52.316;10.530;2024-01-30T15:06:33;10.00;99.90
16479;DHT22;8350;52.316;10.530;2024-01-30T15:09:01;10.00;99.90
16479;DHT22;8350;52.316;10.530;2024-01-30T15:11:28;10.00;99.90
16479;DHT22;8350;52.316;10.530;2024-01-30T15:13:56;10.00;99.90
16479;DHT22;8350;52.316;10.530;2024-01-30T15:16:25;10.00;99.90
16479;DHT22;8350;52.316;10.530;2024-01-30T15:18:56;9.90;99.90
16479;DHT22;8350;52.316;10.530;2024-01-30T15:21:23;9.90;99.90
16479;DHT22;8350;52.316;10.530;2024-01-30T15:23:50;9.90;99.90
16479;DHT22;8350;52.316;10.530;2024-01-30T15:26:18;9.80;99.90
16479;DHT22;8350;52.316;10.530;2024-01-30T15:28:45;9.80;99.90
16479;DHT22;8350;52.316;10.530;2024-01-30T15:31:12;9.80;99.90
16479;DHT22;8350;52.316;10.530;2024-01-30T15:33:39;9.70;99.90
16479;DHT22;8350;52.316;10.530;2024-01-30T15:36:06;9.70;99.90
16479;DHT22;8350;52.316;10.530;2024-01-30T15:38:33;9.70;99.90
16479;DHT22;8350;52.316;10.530;2024-01-30T15:41:00;9.70;99.90
16479;DHT22;8350;52.316;10.530;2024-01-30T15:43:28;9.60;99.90
16479;DHT22;8350;52.316;10.530;2024-01-30T15:45:58;9.70;99.90
16479;DHT22;8350;52.316;10.530;2024-01-30T15:48:28;9.70;99.90
16479;DHT22;8350;52.316;10.530;2024-01-30T15:50:55;9.70;99.90
16479;DHT22;8350;52.316;10.530;2024-01-30T15:53:22;9.60;99.90